Time;durP1;ratioP1;P1;durP2;ratioP2;P2;SDS_P1;SDS_P2;PMS_P1;PMS_P2;Temp;Humidity;BMP_temperature;BMP_pressure;BME280_temperature;BME280_humidity;BME280_pressure;Samples;Min_cycle;Max_cycle;Signal;HPM_P1;HPM_P2
2022/08/26 00:00:50;;;;;;;178.50;170.05;;;25.00;62.50;;;;;;5092103;28;20409;-72
2022/08/26 00:03:16;;;;;;;173.90;165.55;;;25.00;62.50;;;;;;5091945;28;20374;-74
2022/08/26 00:05:42;;;;;;;162.80;155.00;;;25.00;62.50;;;;;;5091981;28;20413;-70
2022/08/26 00:08:09;;;;;;;167.88;159.80;;;25.00;62.40;;;;;;5073710;28;20868;-70
2022/08/26 00:10:36;;;;;;;171.93;163.73;;;25.00;62.50;;;;;;5091927;28;20771;-75
2022/08/26 00:13:02;;;;;;;175.47;167.07;;;25.00;62.50;;;;;;5092878;28;20382;-75
2022/08/26 00:15:28;;;;;;;172.65;164.48;;;25.00;62.50;;;;;;5074095;28;20394;-71
2022/08/26 00:17:54;;;;;;;175.52;167.07;;;25.00;62.40;;;;;;5073617;28;20393;-70
2022/08/26 00:20:23;;;;;;;171.32;163.20;;;25.00;62.50;;;;;;5073655;28;20736;-75
2022/08/26 00:22:48;;;;;;;177.48;169.05;;;25.00;62.50;;;;;;5073844;28;20752;-70
2022/08/26 00:25:15;;;;;;;164.75;156.82;;;25.00;62.50;;;;;;5092060;28;20439;-74
2022/08/26 00:27:42;;;;;;;173.60;165.35;;;25.00;62.50;;;;;;5091692;28;20382;-74
2022/08/26 00:30:11;;;;;;;173.32;165.13;;;25.00;62.50;;;;;;5091905;28;20390;-75
2022/08/26 00:32:37;;;;;;;166.30;158.35;;;25.00;62.50;;;;;;5074163;28;20381;-76
2022/08/26 00:35:04;;;;;;;181.50;172.80;;;24.90;62.40;;;;;;5091593;28;20493;-75
2022/08/26 00:37:29;;;;;;;167.20;159.40;;;24.90;62.40;;;;;;5073528;28;20408;-70
2022/08/26 00:39:55;;;;;;;165.50;157.70;;;24.90;62.30;;;;;;5091582;28;20413;-75
2022/08/26 00:42:21;;;;;;;178.80;170.40;;;25.00;62.50;;;;;;5091920;28;20389;-70
2022/08/26 00:44:47;;;;;;;171.05;162.98;;;24.90;62.40;;;;;;5091450;28;20886;-72
2022/08/26 00:47:26;;;;;;;170.60;162.50;;;25.10;62.60;;;;;;5091433;28;20389;-70
2022/08/26 00:49:53;;;;;;;180.45;171.95;;;24.90;62.40;;;;;;5091240;28;20452;-74
2022/08/26 00:52:20;;;;;;;174.00;165.70;;;24.90;62.40;;;;;;5073629;28;20394;-70
2022/08/26 00:54:59;;;;;;;174.65;166.40;;;24.90;62.40;;;;;;5094288;28;20374;-75
2022/08/26 00:57:25;;;;;;;165.17;157.17;;;24.90;62.40;;;;;;5095519;28;20386;-71
2022/08/26 00:59:56;;;;;;;173.83;165.63;;;24.90;62.40;;;;;;5095367;28;20464;-70
2022/08/26 01:02:22;;;;;;;173.85;165.65;;;24.90;62.40;;;;;;5095740;28;20477;-75
2022/08/26 01:04:56;;;;;;;166.87;158.97;;;24.90;62.40;;;;;;5076869;28;20394;-75
2022/08/26 01:07:27;;;;;;;175.65;167.30;;;24.90;62.40;;;;;;5095173;28;20386;-70
2022/08/26 01:09:54;;;;;;;179.25;170.88;;;24.90;62.30;;;;;;5094899;28;20388;-70
2022/08/26 01:12:21;;;;;;;165.05;157.18;;;24.90;62.40;;;;;;5094822;28;20390;-74
2022/08/26 01:14:46;;;;;;;164.20;156.40;;;24.90;62.30;;;;;;5094892;28;20414;-75
2022/08/26 01:17:12;;;;;;;170.20;162.20;;;24.90;62.40;;;;;;5094982;28;20410;-75
2022/08/26 01:19:43;;;;;;;163.73;155.93;;;24.90;62.40;;;;;;5094734;28;20374;-75
2022/08/26 01:22:30;;;;;;;160.75;153.02;;;24.90;62.30;;;;;;5094660;28;20401;-70
2022/08/26 01:24:59;;;;;;;167.13;159.13;;;24.80;62.20;;;;;;5094674;28;20374;-75
2022/08/26 01:27:29;;;;;;;158.40;150.82;;;24.90;62.40;;;;;;5095014;28;20382;-75
2022/08/26 01:29:56;;;;;;;173.53;165.33;;;24.90;62.30;;;;;;5094803;28;20383;-75
2022/08/26 01:32:24;;;;;;;164.10;156.20;;;24.80;62.30;;;;;;5076419;28;20739;-75
2022/08/26 01:34:51;;;;;;;155.43;147.98;;;24.80;62.20;;;;;;5094478;28;20875;-75
2022/08/26 01:37:24;;;;;;;162.70;155.00;;;24.80;62.20;;;;;;5076274;28;20399;-75
2022/08/26 01:39:52;;;;;;;166.38;158.50;;;24.80;62.20;;;;;;5076189;28;20891;-74
2022/08/26 01:42:21;;;;;;;166.02;158.15;;;24.80;62.20;;;;;;5094459;28;20886;-75
2022/08/26 01:45:13;;;;;;;161.07;153.30;;;24.80;62.10;;;;;;5076909;28;20394;-75
2022/08/26 01:47:41;;;;;;;165.95;158.07;;;24.80;62.10;;;;;;5083570;28;20410;-71
2022/08/26 01:50:12;;;;;;;166.37;158.47;;;24.80;62.10;;;;;;5093973;28;20421;-70
2022/08/26 01:52:41;;;;;;;164.25;156.45;;;24.80;62.10;;;;;;5076122;28;20751;-75
2022/08/26 01:55:08;;;;;;;162.93;155.23;;;24.80;62.10;;;;;;5075924;28;20382;-71
2022/08/26 01:57:35;;;;;;;159.98;152.15;;;24.80;62.20;;;;;;5094299;28;20374;-70
2022/08/26 02:00:08;;;;;;;172.97;164.73;;;24.80;62.20;;;;;;5093836;28;20512;-70
2022/08/26 02:02:33;;;;;;;160.07;152.30;;;24.80;62.20;;;;;;5076031;28;20401;-70
2022/08/26 02:05:04;;;;;;;165.20;157.33;;;24.80;62.30;;;;;;5075803;28;20382;-75
2022/08/26 02:07:31;;;;;;;169.68;161.52;;;24.80;62.20;;;;;;5075406;28;20421;-71
2022/08/26 02:09:57;;;;;;;165.27;157.48;;;24.80;62.20;;;;;;5075491;28;20382;-73
2022/08/26 02:12:24;;;;;;;171.18;163.00;;;24.80;62.10;;;;;;5094182;28;20416;-74
2022/08/26 02:14:54;;;;;;;168.27;160.27;;;24.80;62.10;;;;;;5075514;28;20394;-75
2022/08/26 02:17:28;;;;;;;166.55;158.65;;;24.80;62.10;;;;;;5075598;28;20378;-75
2022/08/26 02:19:55;;;;;;;154.65;147.15;;;24.80;62.10;;;;;;5075417;28;20401;-75
2022/08/26 02:22:22;;;;;;;167.10;159.15;;;24.80;62.10;;;;;;5093518;28;20393;-74
2022/08/26 02:24:51;;;;;;;167.55;159.63;;;24.80;62.10;;;;;;5075358;28;20469;-75
2022/08/26 02:27:23;;;;;;;159.77;152.15;;;24.80;62.10;;;;;;5075338;28;20394;-75
2022/08/26 02:29:55;;;;;;;159.35;151.82;;;24.80;62.10;;;;;;5093845;28;20432;-75
2022/08/26 02:32:21;;;;;;;164.65;156.77;;;24.80;62.10;;;;;;5093747;28;20431;-75
2022/08/26 02:34:47;;;;;;;174.93;166.65;;;24.70;62.00;;;;;;5093274;28;20531;-71
2022/08/26 02:37:13;;;;;;;170.43;162.27;;;24.70;62.00;;;;;;5093229;28;20391;-75
2022/08/26 02:39:40;;;;;;;170.93;162.82;;;24.70;61.90;;;;;;5093210;28;20382;-70
2022/08/26 02:42:05;;;;;;;164.98;157.05;;;24.70;62.00;;;;;;5093115;28;20386;-74
2022/08/26 02:44:31;;;;;;;164.90;157.10;;;24.80;62.00;;;;;;5092744;28;20535;-70
2022/08/26 02:46:57;;;;;;;170.23;162.15;;;24.70;62.00;;;;;;5092935;28;20377;-75
2022/08/26 02:49:25;;;;;;;166.85;159.05;;;24.70;61.90;;;;;;5092682;28;21032;-75
2022/08/26 02:51:51;;;;;;;161.88;154.07;;;24.70;61.90;;;;;;5092628;28;20390;-75
2022/08/26 02:54:20;;;;;;;164.80;156.80;;;24.70;61.90;;;;;;5092977;28;20772;-74
2022/08/26 02:56:46;;;;;;;156.35;148.85;;;24.70;61.90;;;;;;5092861;28;20456;-74
2022/08/26 02:59:11;;;;;;;170.43;162.37;;;24.70;61.90;;;;;;5092811;28;20880;-75
2022/08/26 03:01:37;;;;;;;157.02;149.38;;;24.70;61.90;;;;;;5092509;28;20414;-72
2022/08/26 03:04:05;;;;;;;168.65;160.60;;;24.70;61.90;;;;;;5093253;28;20872;-72
2022/08/26 03:06:31;;;;;;;159.77;152.07;;;24.70;61.90;;;;;;5092883;28;20409;-75
2022/08/26 03:08:57;;;;;;;164.07;156.07;;;24.70;62.10;;;;;;5093197;28;20370;-73
2022/08/26 03:11:23;;;;;;;167.87;159.77;;;24.70;62.40;;;;;;5093545;28;20386;-75
2022/08/26 03:13:49;;;;;;;156.13;148.50;;;24.70;62.20;;;;;;5092431;28;20444;-74
2022/08/26 03:16:15;;;;;;;195.27;185.75;;;24.70;62.10;;;;;;5092534;28;20915;-75
2022/08/26 03:18:41;;;;;;;202.53;192.77;;;24.70;64.40;;;;;;5091729;28;20473;-74
2022/08/26 03:21:09;;;;;;;196.18;186.50;;;24.80;63.40;;;;;;5092590;28;20413;-75
2022/08/26 03:23:37;;;;;;;221.87;210.60;;;24.80;64.90;;;;;;5093495;28;20503;-70
2022/08/26 03:26:04;;;;;;;217.32;206.77;;;24.80;65.20;;;;;;5092196;28;20398;-70
2022/08/26 03:28:30;;;;;;;220.50;210.00;;;24.80;65.00;;;;;;5092444;28;20708;-71
2022/08/26 03:30:56;;;;;;;227.27;216.55;;;24.80;65.20;;;;;;5073496;28;20405;-70
2022/08/26 03:33:24;;;;;;;235.07;223.80;;;24.90;65.30;;;;;;5091557;28;20383;-76
2022/08/26 03:35:51;;;;;;;246.13;234.70;;;24.90;65.40;;;;;;5092439;28;20751;-74
2022/08/26 03:38:21;;;;;;;230.48;219.50;;;24.90;65.70;;;;;;5092193;28;20543;-75
2022/08/26 03:40:47;;;;;;;268.65;255.45;;;25.00;66.00;;;;;;5091412;28;20397;-75
2022/08/26 03:43:14;;;;;;;257.63;245.23;;;25.10;66.00;;;;;;5091892;28;20827;-75
2022/08/26 03:45:40;;;;;;;237.60;225.90;;;25.10;65.00;;;;;;5091667;28;20531;-71
2022/08/26 03:48:06;;;;;;;239.00;227.20;;;25.10;65.40;;;;;;5092209;28;20410;-72
2022/08/26 03:50:32;;;;;;;233.65;221.85;;;25.10;65.10;;;;;;5091640;28;20757;-74
2022/08/26 03:52:58;;;;;;;243.25;231.30;;;25.10;65.30;;;;;;5091323;28;20393;-74
2022/08/26 03:55:26;;;;;;;225.87;214.23;;;25.10;65.30;;;;;;5091789;28;20398;-74
2022/08/26 03:57:51;;;;;;;217.65;206.85;;;25.10;65.20;;;;;;5092488;28;20748;-71
2022/08/26 04:00:18;;;;;;;196.67;186.87;;;25.00;65.30;;;;;;5091848;28;20420;-71
2022/08/26 04:02:47;;;;;;;213.10;202.50;;;25.00;63.70;;;;;;5074421;28;20397;-74
2022/08/26 04:05:15;;;;;;;188.13;178.50;;;25.00;63.50;;;;;;5073725;28;20751;-76
2022/08/26 04:07:44;;;;;;;170.05;160.95;;;24.90;62.30;;;;;;5091781;28;20871;-75
2022/08/26 04:10:12;;;;;;;169.93;160.87;;;24.90;62.40;;;;;;5091678;28;20424;-77
2022/08/26 04:12:38;;;;;;;166.93;158.13;;;24.80;61.80;;;;;;5091586;28;20483;-70
2022/08/26 04:15:06;;;;;;;166.52;157.82;;;24.80;62.00;;;;;;5091754;28;20485;-78
2022/08/26 04:17:32;;;;;;;169.13;160.27;;;24.80;62.00;;;;;;5091770;28;20378;-77
2022/08/26 04:19:57;;;;;;;155.80;147.43;;;24.80;62.00;;;;;;5091704;28;20408;-74
2022/08/26 04:22:23;;;;;;;157.35;149.48;;;24.80;62.00;;;;;;5091774;28;20514;-72
2022/08/26 04:24:49;;;;;;;165.43;156.93;;;24.80;62.00;;;;;;5091615;28;20509;-76
2022/08/26 04:27:14;;;;;;;163.03;154.80;;;24.80;62.30;;;;;;5073557;28;20390;-79
2022/08/26 04:29:40;;;;;;;161.32;153.07;;;24.80;61.80;;;;;;5094010;28;20432;-71
2022/08/26 04:32:07;;;;;;;156.57;148.47;;;24.70;61.40;;;;;;5095679;28;20394;-70
2022/08/26 04:34:34;;;;;;;157.20;149.20;;;24.80;61.70;;;;;;5095562;28;20406;-77
2022/08/26 04:37:00;;;;;;;151.05;143.27;;;24.60;61.50;;;;;;5095497;28;20425;-70
2022/08/26 04:39:26;;;;;;;152.90;144.95;;;24.60;61.40;;;;;;5095241;28;20382;-70
2022/08/26 04:41:55;;;;;;;154.23;146.20;;;24.60;61.30;;;;;;5095299;28;20445;-79
2022/08/26 04:44:23;;;;;;;153.43;145.40;;;24.50;61.50;;;;;;5095593;28;20487;-71
2022/08/26 04:46:49;;;;;;;156.32;148.20;;;24.40;61.50;;;;;;5095436;28;20443;-72
2022/08/26 04:49:15;;;;;;;154.37;145.77;;;24.40;61.80;;;;;;5095154;28;20434;-79
2022/08/26 04:51:41;;;;;;;158.10;149.82;;;24.30;62.10;;;;;;5095130;28;20859;-70
2022/08/26 04:54:06;;;;;;;161.48;153.13;;;24.30;62.00;;;;;;5076958;28;20413;-79
2022/08/26 04:56:36;;;;;;;158.55;150.35;;;24.20;61.90;;;;;;5095302;28;20863;-71
2022/08/26 04:59:03;;;;;;;151.25;142.88;;;24.20;61.80;;;;;;5095165;28;20386;-76
2022/08/26 05:01:30;;;;;;;156.02;147.90;;;24.20;61.80;;;;;;5094934;28;20879;-71
2022/08/26 05:03:57;;;;;;;154.50;146.40;;;24.20;61.80;;;;;;5094941;28;20399;-70
2022/08/26 05:06:23;;;;;;;157.93;149.32;;;24.20;61.70;;;;;;5095077;28;20382;-70
2022/08/26 05:08:49;;;;;;;146.85;139.15;;;24.10;61.50;;;;;;5094979;28;20394;-76
2022/08/26 05:11:15;;;;;;;141.23;133.88;;;24.10;61.50;;;;;;5094727;28;20408;-70
2022/08/26 05:13:40;;;;;;;136.90;129.80;;;24.00;61.50;;;;;;5094779;28;21048;-70
2022/08/26 05:16:09;;;;;;;142.80;135.23;;;24.10;61.40;;;;;;5076706;28;20473;-76
2022/08/26 05:18:36;;;;;;;143.85;136.27;;;24.10;61.20;;;;;;5094669;28;20810;-72
2022/08/26 05:21:02;;;;;;;137.45;130.30;;;24.10;61.30;;;;;;5094549;28;20418;-76
2022/08/26 05:23:30;;;;;;;144.80;137.30;;;24.20;61.40;;;;;;5094663;28;20385;-76
2022/08/26 05:25:57;;;;;;;140.40;133.32;;;24.20;61.20;;;;;;5094634;28;20397;-76
2022/08/26 05:28:23;;;;;;;143.20;135.70;;;24.20;61.30;;;;;;5094590;28;20385;-75
2022/08/26 05:30:50;;;;;;;140.38;133.35;;;24.20;61.40;;;;;;5094408;28;20402;-76
2022/08/26 05:33:16;;;;;;;142.60;135.52;;;24.20;61.30;;;;;;5094522;28;20409;-71
2022/08/26 05:35:43;;;;;;;141.05;133.90;;;24.20;61.40;;;;;;5094288;28;20397;-76
2022/08/26 05:38:14;;;;;;;139.68;132.70;;;24.20;61.50;;;;;;5094335;28;20472;-71
2022/08/26 05:40:45;;;;;;;139.45;132.40;;;24.20;61.40;;;;;;5074879;28;20454;-71
2022/08/26 05:43:12;;;;;;;146.18;138.75;;;24.20;61.40;;;;;;5094331;28;20394;-70
2022/08/26 05:45:45;;;;;;;144.38;137.18;;;24.20;61.40;;;;;;5076074;28;20465;-71
2022/08/26 05:48:11;;;;;;;148.80;141.32;;;24.20;61.50;;;;;;5075967;28;20752;-71
2022/08/26 05:50:46;;;;;;;150.77;143.30;;;24.20;61.50;;;;;;5094154;28;20760;-71
2022/08/26 05:53:12;;;;;;;150.90;143.50;;;24.20;61.60;;;;;;5094015;28;20462;-71
2022/08/26 05:55:50;;;;;;;149.38;142.02;;;24.20;61.60;;;;;;5075961;28;20397;-71
2022/08/26 05:58:19;;;;;;;154.32;146.80;;;24.20;61.60;;;;;;5094037;28;20367;-76
2022/08/26 06:00:45;;;;;;;152.48;144.82;;;24.20;61.60;;;;;;5093787;28;20414;-76
2022/08/26 06:03:11;;;;;;;148.57;141.48;;;24.20;61.70;;;;;;5093965;28;20405;-74
2022/08/26 06:05:40;;;;;;;146.77;139.50;;;24.20;61.60;;;;;;5093849;28;20863;-71
2022/08/26 06:08:10;;;;;;;149.10;141.77;;;24.20;61.70;;;;;;5093829;28;20851;-75
2022/08/26 06:10:43;;;;;;;159.37;151.60;;;24.20;61.70;;;;;;5093580;28;20453;-76
2022/08/26 06:13:09;;;;;;;153.38;146.00;;;24.20;61.80;;;;;;5075169;28;20793;-71
2022/08/26 06:15:40;;;;;;;150.45;143.07;;;24.20;61.70;;;;;;5075388;28;20492;-72
2022/08/26 06:18:06;;;;;;;151.55;144.18;;;24.20;61.70;;;;;;5075479;28;20389;-70
2022/08/26 06:20:32;;;;;;;148.27;141.07;;;24.20;61.80;;;;;;5093536;28;20414;-71
2022/08/26 06:25:43;;;;;;;145.75;138.77;;;24.20;61.80;;;;;;5093586;28;20885;-76
2022/08/26 06:28:08;;;;;;;149.60;142.40;;;24.20;61.90;;;;;;5093325;28;20382;-76
2022/08/26 06:30:39;;;;;;;153.70;146.30;;;24.20;61.90;;;;;;5075067;28;20469;-76
2022/08/26 06:33:05;;;;;;;159.60;151.90;;;24.20;61.80;;;;;;5075392;28;20398;-76
2022/08/26 06:35:37;;;;;;;152.82;145.45;;;24.20;61.90;;;;;;5075138;28;20751;-70
2022/08/26 06:38:03;;;;;;;148.50;141.30;;;24.20;61.90;;;;;;5074851;28;20428;-75
2022/08/26 06:40:29;;;;;;;159.07;151.40;;;24.20;61.90;;;;;;5092476;28;20489;-75
2022/08/26 06:42:55;;;;;;;159.63;152.00;;;24.20;62.00;;;;;;5074920;28;20398;-71
2022/08/26 06:45:21;;;;;;;157.60;150.20;;;24.20;61.90;;;;;;5074982;28;20390;-72
2022/08/26 06:47:46;;;;;;;152.23;144.93;;;24.20;61.90;;;;;;5074941;28;20425;-71
2022/08/26 06:50:12;;;;;;;150.23;143.07;;;24.20;62.00;;;;;;5074713;28;20402;-76
2022/08/26 06:52:40;;;;;;;148.47;141.30;;;24.20;62.00;;;;;;5074601;28;20390;-72
2022/08/26 06:55:07;;;;;;;153.98;146.57;;;24.20;62.00;;;;;;5074609;28;20493;-70
2022/08/26 06:57:33;;;;;;;157.60;150.20;;;24.20;62.00;;;;;;5092900;28;20383;-76
2022/08/26 06:59:58;;;;;;;158.32;150.93;;;24.20;62.00;;;;;;5092703;28;20603;-76
2022/08/26 07:02:24;;;;;;;155.27;147.90;;;24.20;62.00;;;;;;5092905;28;20969;-75
2022/08/26 07:04:50;;;;;;;156.38;149.07;;;24.20;62.00;;;;;;5108484;28;20921;-76
2022/08/26 07:07:15;;;;;;;158.33;150.80;;;24.20;62.00;;;;;;5108412;28;20395;-71
2022/08/26 07:09:41;;;;;;;150.70;143.50;;;24.20;62.00;;;;;;5108118;28;20386;-70
2022/08/26 07:12:08;;;;;;;161.40;153.85;;;24.30;62.10;;;;;;5092080;28;20383;-71
2022/08/26 07:14:34;;;;;;;160.25;152.63;;;24.30;62.10;;;;;;5108072;28;20401;-75
2022/08/26 07:17:00;;;;;;;163.07;155.40;;;24.20;62.00;;;;;;5092261;28;20795;-71
2022/08/26 07:19:26;;;;;;;142.18;135.48;;;24.30;62.10;;;;;;5092255;28;20397;-76
2022/08/26 07:21:51;;;;;;;142.70;135.88;;;24.30;62.10;;;;;;5092326;28;20767;-70
2022/08/26 07:24:17;;;;;;;148.50;141.50;;;24.30;62.10;;;;;;5092389;28;20759;-71
2022/08/26 07:26:42;;;;;;;156.93;149.63;;;24.30;62.10;;;;;;5092335;28;20386;-71
2022/08/26 07:29:08;;;;;;;154.07;146.90;;;24.30;62.10;;;;;;5074220;28;20382;-71
2022/08/26 07:31:36;;;;;;;149.20;142.20;;;24.20;62.10;;;;;;5092241;28;20464;-70
2022/08/26 07:34:03;;;;;;;159.55;152.13;;;24.30;62.10;;;;;;5092128;28;20382;-70
2022/08/26 07:36:29;;;;;;;153.35;146.20;;;24.30;62.20;;;;;;5074048;28;20394;-76
2022/08/26 07:38:55;;;;;;;147.15;140.25;;;24.30;62.10;;;;;;5092138;28;20790;-70
2022/08/26 07:41:23;;;;;;;153.57;146.38;;;24.20;62.10;;;;;;5107472;28;20418;-72
2022/08/26 07:43:50;;;;;;;157.65;150.20;;;24.30;62.10;;;;;;5073910;28;20382;-70
2022/08/26 07:46:19;;;;;;;162.55;154.95;;;24.20;62.10;;;;;;5073982;28;20448;-77
2022/08/26 07:48:46;;;;;;;152.65;145.40;;;24.30;62.10;;;;;;5073725;28;20394;-70
2022/08/26 07:51:14;;;;;;;158.17;150.80;;;24.30;62.20;;;;;;5073986;28;20446;-72
2022/08/26 07:53:40;;;;;;;159.65;152.27;;;24.30;62.20;;;;;;5073327;28;20413;-71
2022/08/26 07:56:06;;;;;;;157.40;150.00;;;24.30;62.20;;;;;;5088749;28;20477;-70
2022/08/26 07:58:32;;;;;;;164.63;156.90;;;24.30;62.20;;;;;;5091335;28;20386;-75
2022/08/26 08:00:58;;;;;;;158.10;150.82;;;24.30;62.20;;;;;;5073825;28;20398;-76
2022/08/26 08:03:23;;;;;;;151.95;144.95;;;24.30;62.20;;;;;;5073317;28;20387;-70
2022/08/26 08:05:49;;;;;;;153.80;146.63;;;24.30;62.10;;;;;;5073717;28;20389;-70
2022/08/26 08:08:15;;;;;;;149.43;142.40;;;24.30;62.20;;;;;;5091896;28;21103;-76
2022/08/26 08:10:42;;;;;;;154.23;147.05;;;24.30;62.10;;;;;;5073706;28;20469;-75
2022/08/26 08:13:07;;;;;;;147.32;140.48;;;24.30;62.10;;;;;;5073649;28;20477;-70
2022/08/26 08:15:36;;;;;;;146.80;139.98;;;24.30;62.10;;;;;;5073566;28;20878;-75
2022/08/26 08:18:02;;;;;;;144.88;138.05;;;24.30;62.20;;;;;;5091645;28;20409;-70
2022/08/26 08:20:28;;;;;;;150.30;143.30;;;24.30;62.10;;;;;;5091590;28;20406;-76
2022/08/26 08:22:55;;;;;;;143.38;136.68;;;24.30;62.10;;;;;;5091646;28;20461;-70
2022/08/26 08:25:24;;;;;;;136.27;129.85;;;24.30;62.10;;;;;;5091614;28;20421;-70
2022/08/26 08:27:50;;;;;;;145.65;138.85;;;24.30;62.00;;;;;;5091548;28;20737;-70
2022/08/26 08:30:18;;;;;;;157.05;149.75;;;24.30;62.10;;;;;;5091556;28;20392;-70
2022/08/26 08:32:44;;;;;;;147.68;140.85;;;24.30;62.10;;;;;;5091494;28;20748;-70
2022/08/26 08:35:14;;;;;;;140.32;133.82;;;24.30;62.00;;;;;;5090926;28;20382;-70
2022/08/26 08:37:40;;;;;;;146.10;139.38;;;24.30;62.10;;;;;;5091304;28;20444;-74
2022/08/26 08:40:08;;;;;;;145.95;139.18;;;24.30;62.50;;;;;;5073322;28;20895;-70
2022/08/26 08:43:05;;;;;;;148.40;141.60;;;24.40;62.00;;;;;;5091323;28;20476;-75
2022/08/26 08:45:59;;;;;;;143.48;136.68;;;24.40;62.10;;;;;;5091509;28;20389;-71
2022/08/26 08:48:32;;;;;;;146.23;139.38;;;24.40;62.30;;;;;;5076233;28;20781;-74
2022/08/26 08:51:17;;;;;;;144.15;137.38;;;24.40;62.80;;;;;;5073204;28;20386;-75
2022/08/26 08:53:46;;;;;;;139.52;133.00;;;24.40;62.00;;;;;;5056644;28;20401;-74
2022/08/26 08:56:33;;;;;;;134.25;128.02;;;24.40;62.00;;;;;;5080772;28;20447;-75
2022/08/26 08:58:59;;;;;;;137.70;131.30;;;24.40;62.00;;;;;;5111246;28;20972;-71
2022/08/26 09:01:49;;;;;;;134.10;127.83;;;24.40;62.10;;;;;;5109566;28;20616;-76
2022/08/26 09:04:34;;;;;;;141.38;134.80;;;24.40;62.00;;;;;;5090817;28;20520;-73
2022/08/26 09:07:03;;;;;;;145.05;138.32;;;24.40;62.00;;;;;;5076939;28;20402;-70
2022/08/26 09:09:37;;;;;;;148.73;141.70;;;24.40;62.00;;;;;;5073167;28;20397;-71
2022/08/26 09:12:08;;;;;;;155.35;148.15;;;24.40;62.30;;;;;;5067072;28;20399;-74
2022/08/26 09:14:34;;;;;;;156.20;148.88;;;24.40;62.30;;;;;;5063953;28;20386;-71
2022/08/26 09:17:29;;;;;;;157.05;149.63;;;24.40;62.40;;;;;;5073983;28;20397;-72
2022/08/26 09:20:07;;;;;;;152.05;144.88;;;24.40;62.40;;;;;;5099184;28;20428;-76
2022/08/26 09:22:36;;;;;;;154.40;147.10;;;24.40;62.40;;;;;;5091725;28;20428;-72
2022/08/26 09:25:07;;;;;;;160.55;153.07;;;24.40;62.40;;;;;;5075042;28;20399;-76
2022/08/26 09:27:37;;;;;;;170.68;162.73;;;24.40;62.40;;;;;;5092855;28;20392;-75
2022/08/26 09:30:04;;;;;;;174.53;166.43;;;24.40;62.40;;;;;;5074984;28;20390;-76
2022/08/26 09:32:30;;;;;;;165.65;157.93;;;24.50;62.40;;;;;;5075212;28;20390;-75
2022/08/26 09:35:21;;;;;;;161.55;153.95;;;24.40;62.30;;;;;;5075218;28;20394;-76
2022/08/26 09:37:48;;;;;;;168.18;160.43;;;24.50;62.30;;;;;;5090221;28;20817;-75
2022/08/26 09:40:30;;;;;;;170.63;162.63;;;24.50;62.20;;;;;;5075093;28;20455;-76
2022/08/26 09:43:08;;;;;;;163.85;156.18;;;24.50;62.30;;;;;;5091326;28;20393;-71
2022/08/26 09:45:38;;;;;;;169.02;161.15;;;24.40;62.30;;;;;;5073326;28;20887;-75
2022/08/26 09:48:05;;;;;;;164.27;156.60;;;24.50;62.90;;;;;;5074753;28;20394;-76
2022/08/26 09:50:36;;;;;;;165.73;158.05;;;24.50;62.30;;;;;;5092202;28;20887;-76
2022/08/26 09:53:24;;;;;;;167.05;159.35;;;24.50;62.20;;;;;;5074220;28;20398;-75
2022/08/26 09:55:53;;;;;;;165.38;157.70;;;24.50;62.20;;;;;;5090291;28;20436;-75
2022/08/26 09:58:31;;;;;;;162.50;154.88;;;24.50;62.20;;;;;;5074387;28;20421;-74
2022/08/26 10:01:00;;;;;;;160.07;152.65;;;24.50;62.20;;;;;;5091223;28;20398;-77
2022/08/26 10:03:34;;;;;;;172.77;164.70;;;24.50;62.10;;;;;;5074593;28;20535;-70
2022/08/26 10:06:02;;;;;;;167.60;159.93;;;24.50;62.10;;;;;;5074535;28;20422;-74
2022/08/26 10:08:32;;;;;;;160.05;152.57;;;24.50;62.20;;;;;;5071896;28;20429;-76
2022/08/26 10:11:06;;;;;;;171.10;163.07;;;24.50;62.70;;;;;;5074133;28;20405;-70
2022/08/26 10:13:43;;;;;;;162.43;154.77;;;24.50;62.10;;;;;;5072654;28;20940;-70
2022/08/26 10:16:32;;;;;;;156.45;149.23;;;24.50;62.00;;;;;;5072028;28;20485;-72
2022/08/26 10:18:57;;;;;;;171.25;162.75;;;24.60;62.20;;;;;;5091209;28;20411;-71
2022/08/26 10:21:28;;;;;;;188.30;179.33;;;24.60;62.10;;;;;;5069744;28;20453;-76
2022/08/26 10:23:58;;;;;;;166.43;158.32;;;24.60;62.90;;;;;;5088753;28;20386;-75
2022/08/26 10:26:44;;;;;;;165.25;157.45;;;24.60;62.20;;;;;;5073149;28;20390;-77
2022/08/26 10:29:22;;;;;;;184.32;175.63;;;24.60;62.70;;;;;;5090070;28;20743;-76
2022/08/26 10:31:59;;;;;;;182.50;173.97;;;24.60;62.90;;;;;;5072979;28;20561;-71
2022/08/26 10:34:24;;;;;;;166.20;158.17;;;24.60;62.00;;;;;;5092109;28;20970;-72
2022/08/26 10:36:50;;;;;;;170.10;162.27;;;24.60;62.20;;;;;;5099294;28;20392;-71
2022/08/26 10:39:40;;;;;;;166.07;158.37;;;24.60;62.20;;;;;;5092144;28;20413;-79
2022/08/26 10:42:15;;;;;;;165.98;158.07;;;24.60;62.30;;;;;;5089366;28;20887;-77
2022/08/26 10:44:43;;;;;;;163.38;155.65;;;24.60;62.10;;;;;;5073612;28;20493;-75
2022/08/26 10:47:17;;;;;;;188.50;179.60;;;24.60;62.60;;;;;;5073836;28;20832;-75
2022/08/26 10:49:46;;;;;;;199.57;190.15;;;24.70;62.80;;;;;;5073332;28;20402;-71
2022/08/26 10:52:33;;;;;;;192.95;183.75;;;24.70;63.50;;;;;;5073537;28;20505;-71
2022/08/26 10:55:18;;;;;;;210.18;199.98;;;24.70;63.40;;;;;;5073887;28;20402;-79
2022/08/26 10:58:22;;;;;;;196.40;186.95;;;24.80;63.10;;;;;;5074000;28;20387;-80
2022/08/26 11:04:01;;;;;;;215.43;205.35;;;24.80;63.70;;;;;;5092093;28;20401;-80
2022/08/26 11:06:30;;;;;;;206.38;196.90;;;24.80;62.80;;;;;;5089088;28;20393;-81
2022/08/26 11:09:02;;;;;;;180.23;171.65;;;24.80;62.90;;;;;;5073963;28;20393;-82
2022/08/26 11:11:41;;;;;;;188.00;179.07;;;24.80;62.40;;;;;;5074131;28;20778;-73
2022/08/26 11:14:19;;;;;;;184.93;176.02;;;24.80;62.40;;;;;;5096936;28;20386;-76
2022/08/26 11:16:47;;;;;;;177.35;168.93;;;24.80;62.40;;;;;;5092108;28;20432;-81
2022/08/26 11:19:34;;;;;;;169.43;161.43;;;24.90;62.40;;;;;;5073941;28;20382;-82
2022/08/26 11:22:27;;;;;;;176.45;168.13;;;24.80;62.30;;;;;;5072964;28;20422;-81
2022/08/26 11:24:56;;;;;;;172.00;163.88;;;24.90;62.40;;;;;;5086677;28;20430;-75
2022/08/26 11:27:25;;;;;;;163.35;155.57;;;24.80;62.60;;;;;;5073500;28;20473;-81
2022/08/26 11:30:25;;;;;;;168.25;160.10;;;24.80;61.90;;;;;;5073490;28;20469;-81
2022/08/26 11:32:54;;;;;;;167.45;159.55;;;24.90;62.10;;;;;;5070988;28;20386;-81
2022/08/26 11:35:20;;;;;;;178.60;170.35;;;24.90;62.00;;;;;;5091686;28;20398;-82
2022/08/26 11:37:50;;;;;;;163.00;155.43;;;24.90;62.00;;;;;;5091489;28;20885;-82
2022/08/26 11:40:20;;;;;;;174.13;166.00;;;24.90;61.90;;;;;;5073281;28;20395;-82
2022/08/26 11:42:54;;;;;;;169.48;161.48;;;25.00;61.90;;;;;;5091760;28;20382;-70
2022/08/26 11:45:32;;;;;;;163.10;155.25;;;24.90;61.70;;;;;;5091527;28;20381;-75
2022/08/26 11:48:16;;;;;;;162.48;154.68;;;25.00;61.80;;;;;;5090225;28;20386;-70
2022/08/26 11:50:59;;;;;;;167.82;159.95;;;25.00;61.90;;;;;;5090706;28;20406;-81
2022/08/26 11:53:25;;;;;;;164.63;156.93;;;25.00;61.90;;;;;;5073314;28;20394;-82
2022/08/26 11:55:53;;;;;;;161.95;154.20;;;25.00;61.80;;;;;;5072946;28;20425;-80
2022/08/26 11:58:21;;;;;;;162.40;154.67;;;25.00;62.10;;;;;;5073427;28;20484;-80
2022/08/26 12:01:25;;;;;;;174.60;166.38;;;25.00;62.00;;;;;;5073406;28;20975;-81
2022/08/26 12:03:52;;;;;;;167.00;158.90;;;25.00;61.80;;;;;;5027114;28;20483;-81
2022/08/26 12:06:29;;;;;;;172.05;163.88;;;25.10;62.20;;;;;;5072893;28;20475;-73
2022/08/26 12:08:58;;;;;;;180.00;171.23;;;25.10;62.20;;;;;;5070739;28;20459;-70
2022/08/26 12:11:31;;;;;;;173.10;164.82;;;25.10;62.00;;;;;;5072430;28;20386;-69
2022/08/26 12:14:06;;;;;;;180.73;172.07;;;25.10;61.80;;;;;;5072454;28;20447;-74
2022/08/26 12:16:37;;;;;;;169.57;161.65;;;25.10;61.90;;;;;;5088964;28;20940;-80
2022/08/26 12:19:29;;;;;;;173.32;165.02;;;25.10;61.70;;;;;;5072934;28;20888;-79
2022/08/26 12:22:14;;;;;;;166.85;158.95;;;25.10;61.90;;;;;;5067840;28;20410;-80
2022/08/26 12:25:04;;;;;;;165.68;157.82;;;25.20;62.00;;;;;;5091118;28;20378;-78
2022/08/26 12:27:38;;;;;;;167.27;159.50;;;25.20;61.90;;;;;;5088821;28;20492;-79